KLCH/LCH METAR and TAF weather

Enter ICAO airport designator
Station Type Date Time Source
KLCH METAR 2020/03/28 08:30 UTC NOAA

KLCH 280830Z 18008G17KT 10SM OVC013 24/22 A2982 RMK AO2 T02440217


Station Type Date Time Source
KLCH Decoded METAR 2020/03/28 08:30 UTC NOAA

LAKE CHARLES REGIONAL AIRPORT , LA, United States (KLCH) 30-12N 093-23W 3M
Mar 28, 2020 - 04:30 AM EDT / 2020.03.28 0830 UTC
Wind: from the S (180 degrees) at 9 MPH (8 KT) gusting to 20 MPH (17 KT):0
Visibility: 10 mile(s):0
Sky conditions: overcast
Temperature: 75.9 F (24.4 C)
Dew Point: 71.1 F (21.7 C)
Relative Humidity: 84%
Pressure (altimeter): 29.82 in. Hg (1009 hPa)
ob: KLCH 280830Z 18008G17KT 10SM OVC013 24/22 A2982 RMK AO2 T02440217
cycle: 8

Station Type Date Time Source
KLCH TAF 2020/03/28 06:22 UTC NOAA

TAF KLCH 280520Z 2806/2906 17009KT P6SM SCT015 OVC025
FM281000 18009KT P6SM OVC015
FM281400 18012G17KT P6SM BKN025
FM281600 19014G22KT P6SM SCT035 BKN050
FM290200 21008KT P6SM OVC015

Example: see airport list